sensor_id;sensor_type;location;lat;lon;timestamp;pressure;altitude;pressure_sealevel;temperature;humidity
41140;BME280;26881;48.784;9.192;2023-02-02T00:03:38;99217.03;;;7.10;67.28
41140;BME280;26881;48.784;9.192;2023-02-02T00:09:02;99210.69;;;7.19;66.27
41140;BME280;26881;48.784;9.192;2023-02-02T00:14:24;99209.72;;;7.22;65.98
41140;BME280;26881;48.784;9.192;2023-02-02T00:19:45;99192.25;;;7.25;66.32
41140;BME280;26881;48.784;9.192;2023-02-02T00:25:08;99197.47;;;7.25;66.75
41140;BME280;26881;48.784;9.192;2023-02-02T00:30:30;99221.59;;;7.29;66.85
41140;BME280;26881;48.784;9.192;2023-02-02T00:35:52;99209.66;;;7.23;67.17
41140;BME280;26881;48.784;9.192;2023-02-02T00:41:14;99211.03;;;7.33;67.03
41140;BME280;26881;48.784;9.192;2023-02-02T00:46:39;99201.59;;;7.31;67.36
41140;BME280;26881;48.784;9.192;2023-02-02T00:52:01;99196.75;;;7.20;67.35
41140;BME280;26881;48.784;9.192;2023-02-02T00:57:23;99186.94;;;7.28;68.21
41140;BME280;26881;48.784;9.192;2023-02-02T01:02:45;99181.09;;;7.22;68.44
41140;BME280;26881;48.784;9.192;2023-02-02T01:08:07;99190.22;;;7.33;67.20
41140;BME280;26881;48.784;9.192;2023-02-02T01:13:29;99202.25;;;7.36;66.88
41140;BME280;26881;48.784;9.192;2023-02-02T01:18:51;99211.03;;;7.33;67.32
41140;BME280;26881;48.784;9.192;2023-02-02T01:24:13;99203.06;;;7.38;67.53
41140;BME280;26881;48.784;9.192;2023-02-02T01:29:35;99207.31;;;7.41;68.46
41140;BME280;26881;48.784;9.192;2023-02-02T01:34:57;99223.16;;;7.34;68.59
41140;BME280;26881;48.784;9.192;2023-02-02T01:40:18;99217.88;;;7.36;69.12
41140;BME280;26881;48.784;9.192;2023-02-02T01:45:40;99223.25;;;7.31;69.24
41140;BME280;26881;48.784;9.192;2023-02-02T01:51:05;99220.59;;;7.33;69.89
41140;BME280;26881;48.784;9.192;2023-02-02T01:56:33;99216.41;;;7.29;70.12
41140;BME280;26881;48.784;9.192;2023-02-02T02:01:56;99213.75;;;7.30;70.45
41140;BME280;26881;48.784;9.192;2023-02-02T02:07:18;99216.19;;;7.35;70.60
41140;BME280;26881;48.784;9.192;2023-02-02T02:12:40;99215.50;;;7.30;69.84
41140;BME280;26881;48.784;9.192;2023-02-02T02:18:05;99209.56;;;7.26;71.00
41140;BME280;26881;48.784;9.192;2023-02-02T02:35:12;99217.56;;;7.20;71.38
41140;BME280;26881;48.784;9.192;2023-02-02T02:40:43;99214.63;;;7.29;71.35
41140;BME280;26881;48.784;9.192;2023-02-02T02:46:08;99213.59;;;7.35;70.65
41140;BME280;26881;48.784;9.192;2023-02-02T02:57:11;99203.19;;;7.35;70.83
41140;BME280;26881;48.784;9.192;2023-02-02T03:02:55;99208.16;;;7.41;70.28
41140;BME280;26881;48.784;9.192;2023-02-02T03:08:42;99217.84;;;7.37;71.38
41140;BME280;26881;48.784;9.192;2023-02-02T03:14:06;99224.44;;;7.23;71.86
41140;BME280;26881;48.784;9.192;2023-02-02T03:19:30;99226.91;;;7.26;71.73
41140;BME280;26881;48.784;9.192;2023-02-02T03:24:51;99225.28;;;7.23;71.23
41140;BME280;26881;48.784;9.192;2023-02-02T03:30:14;99214.59;;;7.31;71.67
41140;BME280;26881;48.784;9.192;2023-02-02T03:35:36;99208.16;;;7.41;70.44
41140;BME280;26881;48.784;9.192;2023-02-02T03:40:58;99214.59;;;7.31;71.03
41140;BME280;26881;48.784;9.192;2023-02-02T03:46:19;99212.84;;;7.31;70.92
41140;BME280;26881;48.784;9.192;2023-02-02T03:51:41;99222.25;;;7.35;70.01
41140;BME280;26881;48.784;9.192;2023-02-02T03:57:04;99224.19;;;7.29;70.93
41140;BME280;26881;48.784;9.192;2023-02-02T04:02:26;99238.84;;;7.31;70.91
41140;BME280;26881;48.784;9.192;2023-02-02T04:07:48;99241.69;;;7.25;71.09
41140;BME280;26881;48.784;9.192;2023-02-02T04:13:09;99249.53;;;7.24;70.81
41140;BME280;26881;48.784;9.192;2023-02-02T04:18:31;99251.28;;;7.23;71.09
41140;BME280;26881;48.784;9.192;2023-02-02T04:23:53;99248.47;;;7.29;71.17
41140;BME280;26881;48.784;9.192;2023-02-02T04:29:15;99245.63;;;7.37;71.21
41140;BME280;26881;48.784;9.192;2023-02-02T04:34:37;99250.81;;;7.37;71.73
41140;BME280;26881;48.784;9.192;2023-02-02T04:39:58;99259.66;;;7.31;71.33
41140;BME280;26881;48.784;9.192;2023-02-02T04:45:20;99263.75;;;7.38;72.04
41140;BME280;26881;48.784;9.192;2023-02-02T04:50:42;99258.56;;;7.38;71.81
41140;BME280;26881;48.784;9.192;2023-02-02T04:56:11;99265.41;;;7.41;71.40
41140;BME280;26881;48.784;9.192;2023-02-02T05:01:33;99275.75;;;7.43;71.45
41140;BME280;26881;48.784;9.192;2023-02-02T05:06:55;99270.50;;;7.44;71.57
41140;BME280;26881;48.784;9.192;2023-02-02T05:12:17;99278.16;;;7.49;71.40
41140;BME280;26881;48.784;9.192;2023-02-02T05:17:38;99284.41;;;7.43;71.26
41140;BME280;26881;48.784;9.192;2023-02-02T05:23:00;99292.97;;;7.47;71.05
41140;BME280;26881;48.784;9.192;2023-02-02T05:28:23;99293.53;;;7.55;71.23
41140;BME280;26881;48.784;9.192;2023-02-02T05:33:45;99300.66;;;7.50;71.37
41140;BME280;26881;48.784;9.192;2023-02-02T05:39:08;99289.56;;;7.45;72.54
41140;BME280;26881;48.784;9.192;2023-02-02T05:44:30;99279.22;;;7.43;72.36
41140;BME280;26881;48.784;9.192;2023-02-02T05:49:51;99284.94;;;7.53;71.98
41140;BME280;26881;48.784;9.192;2023-02-02T05:55:13;99300.22;;;7.62;71.59
41140;BME280;26881;48.784;9.192;2023-02-02T06:00:35;99294.66;;;7.48;71.99
41140;BME280;26881;48.784;9.192;2023-02-02T06:05:57;99292.06;;;7.48;72.10
41140;BME280;26881;48.784;9.192;2023-02-02T06:11:19;99290.25;;;7.50;72.56
41140;BME280;26881;48.784;9.192;2023-02-02T06:16:40;99291.09;;;7.50;71.76
41140;BME280;26881;48.784;9.192;2023-02-02T06:22:02;99301.47;;;7.52;72.54
41140;BME280;26881;48.784;9.192;2023-02-02T06:27:24;99306.53;;;7.56;71.88
41140;BME280;26881;48.784;9.192;2023-02-02T06:32:46;99317.72;;;7.58;72.18
41140;BME280;26881;48.784;9.192;2023-02-02T06:38:07;99327.19;;;7.61;71.58
41140;BME280;26881;48.784;9.192;2023-02-02T06:43:29;99321.13;;;7.60;72.15
41140;BME280;26881;48.784;9.192;2023-02-02T06:48:51;99338.56;;;7.58;72.12
41140;BME280;26881;48.784;9.192;2023-02-02T06:54:13;99350.88;;;7.53;72.69
41140;BME280;26881;48.784;9.192;2023-02-02T06:59:35;99344.56;;;7.60;71.69
41140;BME280;26881;48.784;9.192;2023-02-02T07:04:57;99338.44;;;7.62;72.20
41140;BME280;26881;48.784;9.192;2023-02-02T07:10:18;99330.75;;;7.58;72.04
41140;BME280;26881;48.784;9.192;2023-02-02T07:16:02;99331.53;;;7.60;72.43
41140;BME280;26881;48.784;9.192;2023-02-02T07:21:25;99332.72;;;7.52;71.46
41140;BME280;26881;48.784;9.192;2023-02-02T07:26:49;99331.59;;;7.59;71.86
41140;BME280;26881;48.784;9.192;2023-02-02T07:32:11;99350.34;;;7.69;71.24
41140;BME280;26881;48.784;9.192;2023-02-02T07:37:33;99358.16;;;7.69;71.39
41140;BME280;26881;48.784;9.192;2023-02-02T07:42:55;99346.88;;;7.68;71.22
41140;BME280;26881;48.784;9.192;2023-02-02T07:48:21;99345.28;;;7.64;71.29
41140;BME280;26881;48.784;9.192;2023-02-02T07:53:43;99357.34;;;7.67;71.42
41140;BME280;26881;48.784;9.192;2023-02-02T07:59:05;99340.00;;;7.67;72.65
41140;BME280;26881;48.784;9.192;2023-02-02T08:04:27;99320.53;;;7.77;71.41
41140;BME280;26881;48.784;9.192;2023-02-02T08:09:49;99323.19;;;7.76;72.59
41140;BME280;26881;48.784;9.192;2023-02-02T08:15:12;99330.22;;;7.74;71.51
41140;BME280;26881;48.784;9.192;2023-02-02T08:20:33;99350.09;;;7.76;71.21
41140;BME280;26881;48.784;9.192;2023-02-02T08:26:26;99371.94;;;7.72;70.30
41140;BME280;26881;48.784;9.192;2023-02-02T08:31:48;99373.72;;;7.70;70.40
41140;BME280;26881;48.784;9.192;2023-02-02T08:37:09;99392.78;;;7.71;70.83
41140;BME280;26881;48.784;9.192;2023-02-02T08:42:31;99394.94;;;7.85;70.26
41140;BME280;26881;48.784;9.192;2023-02-02T08:47:53;99396.66;;;7.86;69.98
41140;BME280;26881;48.784;9.192;2023-02-02T08:53:32;99410.44;;;7.88;69.80
41140;BME280;26881;48.784;9.192;2023-02-02T08:58:55;99427.78;;;7.89;69.35
41140;BME280;26881;48.784;9.192;2023-02-02T09:04:18;99437.25;;;7.91;68.26
41140;BME280;26881;48.784;9.192;2023-02-02T09:09:40;99435.41;;;7.95;69.32
41140;BME280;26881;48.784;9.192;2023-02-02T09:15:02;99429.97;;;8.01;69.00
41140;BME280;26881;48.784;9.192;2023-02-02T09:20:23;99433.47;;;8.00;69.72
41140;BME280;26881;48.784;9.192;2023-02-02T09:25:45;99427.66;;;7.92;69.90
41140;BME280;26881;48.784;9.192;2023-02-02T09:31:08;99435.03;;;8.04;70.30
41140;BME280;26881;48.784;9.192;2023-02-02T09:36:30;99433.38;;;8.03;70.23
41140;BME280;26881;48.784;9.192;2023-02-02T09:42:02;99437.66;;;8.04;70.55
41140;BME280;26881;48.784;9.192;2023-02-02T09:47:54;99453.25;;;8.06;70.78
41140;BME280;26881;48.784;9.192;2023-02-02T09:53:24;99450.78;;;8.01;71.34
41140;BME280;26881;48.784;9.192;2023-02-02T09:58:52;99457.00;;;7.97;71.58
41140;BME280;26881;48.784;9.192;2023-02-02T10:04:18;99464.94;;;7.94;72.64
41140;BME280;26881;48.784;9.192;2023-02-02T10:09:49;99466.25;;;7.80;72.58
41140;BME280;26881;48.784;9.192;2023-02-02T10:15:45;99463.19;;;7.94;72.75
41140;BME280;26881;48.784;9.192;2023-02-02T10:21:14;99466.47;;;7.99;72.05
41140;BME280;26881;48.784;9.192;2023-02-02T10:26:46;99475.97;;;8.02;71.69
41140;BME280;26881;48.784;9.192;2023-02-02T10:32:12;99478.81;;;7.94;72.04
41140;BME280;26881;48.784;9.192;2023-02-02T10:49:30;99486.22;;;8.07;71.20
41140;BME280;26881;48.784;9.192;2023-02-02T11:00:55;99491.63;;;8.00;72.01
41140;BME280;26881;48.784;9.192;2023-02-02T11:06:22;99484.34;;;8.10;72.29
41140;BME280;26881;48.784;9.192;2023-02-02T11:12:05;99473.97;;;8.09;72.37
41140;BME280;26881;48.784;9.192;2023-02-02T11:17:31;99468.75;;;8.09;73.38
41140;BME280;26881;48.784;9.192;2023-02-02T11:23:02;99471.31;;;8.10;72.46
41140;BME280;26881;48.784;9.192;2023-02-02T11:28:25;99470.78;;;8.00;73.56
41140;BME280;26881;48.784;9.192;2023-02-02T11:33:50;99459.06;;;8.14;73.31
41140;BME280;26881;48.784;9.192;2023-02-02T11:39:19;99463.19;;;8.19;73.40
41140;BME280;26881;48.784;9.192;2023-02-02T11:44:47;99456.44;;;8.14;72.95
41140;BME280;26881;48.784;9.192;2023-02-02T11:50:21;99457.44;;;8.10;72.15
41140;BME280;26881;48.784;9.192;2023-02-02T11:55:44;99464.25;;;8.14;72.49
41140;BME280;26881;48.784;9.192;2023-02-02T12:01:21;99461.69;;;8.12;72.45
41140;BME280;26881;48.784;9.192;2023-02-02T12:06:43;99456.44;;;8.14;72.81
41140;BME280;26881;48.784;9.192;2023-02-02T12:12:22;99462.72;;;8.08;73.49
41140;BME280;26881;48.784;9.192;2023-02-02T12:17:51;99462.13;;;8.00;74.55
41140;BME280;26881;48.784;9.192;2023-02-02T12:23:54;99458.56;;;8.02;75.84
41140;BME280;26881;48.784;9.192;2023-02-02T12:29:33;99463.94;;;7.98;75.58
41140;BME280;26881;48.784;9.192;2023-02-02T12:41:12;99456.94;;;8.00;76.80
41140;BME280;26881;48.784;9.192;2023-02-02T12:46:57;99458.72;;;7.98;76.26
41140;BME280;26881;48.784;9.192;2023-02-02T12:52:37;99466.75;;;7.92;77.40
41140;BME280;26881;48.784;9.192;2023-02-02T12:58:11;99470.88;;;7.72;77.73
41140;BME280;26881;48.784;9.192;2023-02-02T13:09:29;99461.19;;;7.76;78.85
41140;BME280;26881;48.784;9.192;2023-02-02T13:14:57;99457.19;;;7.66;78.76
41140;BME280;26881;48.784;9.192;2023-02-02T13:20:46;99471.56;;;7.77;78.13
41140;BME280;26881;48.784;9.192;2023-02-02T13:26:15;99463.09;;;7.71;79.96
41140;BME280;26881;48.784;9.192;2023-02-02T13:31:44;99466.69;;;7.67;79.62
41140;BME280;26881;48.784;9.192;2023-02-02T13:37:15;99474.28;;;7.74;79.60
41140;BME280;26881;48.784;9.192;2023-02-02T13:42:46;99479.38;;;7.77;78.73
41140;BME280;26881;48.784;9.192;2023-02-02T14:05:35;99499.91;;;7.87;76.92
41140;BME280;26881;48.784;9.192;2023-02-02T14:11:00;99497.41;;;7.84;77.63
41140;BME280;26881;48.784;9.192;2023-02-02T14:16:45;99511.03;;;7.92;77.28
41140;BME280;26881;48.784;9.192;2023-02-02T14:33:26;99503.69;;;8.03;74.90
41140;BME280;26881;48.784;9.192;2023-02-02T14:38:57;99515.03;;;8.02;75.03
41140;BME280;26881;48.784;9.192;2023-02-02T14:44:23;99521.97;;;8.01;74.57
41140;BME280;26881;48.784;9.192;2023-02-02T14:49:45;99522.84;;;8.02;74.58
41140;BME280;26881;48.784;9.192;2023-02-02T14:55:18;99527.16;;;8.03;74.23
41140;BME280;26881;48.784;9.192;2023-02-02T15:00:40;99520.03;;;8.08;73.76
41140;BME280;26881;48.784;9.192;2023-02-02T15:06:05;99533.16;;;8.05;73.49
41140;BME280;26881;48.784;9.192;2023-02-02T15:17:33;99527.91;;;8.07;72.08
41140;BME280;26881;48.784;9.192;2023-02-02T15:23:29;99527.94;;;8.05;73.08
41140;BME280;26881;48.784;9.192;2023-02-02T15:28:56;99537.53;;;8.05;72.37
41140;BME280;26881;48.784;9.192;2023-02-02T15:34:24;99541.56;;;8.13;71.46
41140;BME280;26881;48.784;9.192;2023-02-02T15:39:51;99546.31;;;8.02;72.22
41140;BME280;26881;48.784;9.192;2023-02-02T15:51:06;99568.84;;;8.03;72.13
41140;BME280;26881;48.784;9.192;2023-02-02T15:56:35;99578.34;;;8.04;71.18
41140;BME280;26881;48.784;9.192;2023-02-02T16:07:29;99606.22;;;8.02;71.36
41140;BME280;26881;48.784;9.192;2023-02-02T16:12:52;99619.19;;;8.03;71.74
41140;BME280;26881;48.784;9.192;2023-02-02T16:18:14;99621.75;;;8.05;72.31
41140;BME280;26881;48.784;9.192;2023-02-02T16:23:39;99641.63;;;8.08;71.85
41140;BME280;26881;48.784;9.192;2023-02-02T16:29:00;99663.31;;;8.08;71.91
41140;BME280;26881;48.784;9.192;2023-02-02T16:45:45;99689.34;;;8.10;71.20
41140;BME280;26881;48.784;9.192;2023-02-02T16:56:34;99719.50;;;8.17;71.17
41140;BME280;26881;48.784;9.192;2023-02-02T17:01:59;99726.50;;;8.16;70.88
41140;BME280;26881;48.784;9.192;2023-02-02T17:07:23;99737.06;;;8.12;71.33
41140;BME280;26881;48.784;9.192;2023-02-02T17:12:49;99754.31;;;8.16;71.04
41140;BME280;26881;48.784;9.192;2023-02-02T17:18:11;99745.06;;;8.04;71.52
41140;BME280;26881;48.784;9.192;2023-02-02T17:23:34;99754.75;;;8.00;71.95
41140;BME280;26881;48.784;9.192;2023-02-02T17:28:59;99772.75;;;8.08;72.62
41140;BME280;26881;48.784;9.192;2023-02-02T17:34:23;99769.41;;;8.05;72.31
41140;BME280;26881;48.784;9.192;2023-02-02T17:39:45;99775.41;;;8.07;72.34
41140;BME280;26881;48.784;9.192;2023-02-02T17:45:15;99780.03;;;7.97;72.89
41140;BME280;26881;48.784;9.192;2023-02-02T17:50:39;99770.50;;;7.96;73.15
41140;BME280;26881;48.784;9.192;2023-02-02T17:56:01;99777.56;;;7.92;73.08
41140;BME280;26881;48.784;9.192;2023-02-02T18:01:23;99796.84;;;7.85;73.23
41140;BME280;26881;48.784;9.192;2023-02-02T18:06:44;99808.78;;;7.94;72.43
41140;BME280;26881;48.784;9.192;2023-02-02T18:12:06;99813.09;;;7.95;72.80
41140;BME280;26881;48.784;9.192;2023-02-02T18:17:28;99807.28;;;7.85;72.72
41140;BME280;26881;48.784;9.192;2023-02-02T18:22:51;99808.03;;;7.90;72.88
41140;BME280;26881;48.784;9.192;2023-02-02T18:28:13;99817.31;;;7.99;72.06
41140;BME280;26881;48.784;9.192;2023-02-02T18:33:38;99807.91;;;7.95;71.89
41140;BME280;26881;48.784;9.192;2023-02-02T18:39:02;99815.19;;;7.82;72.70
41140;BME280;26881;48.784;9.192;2023-02-02T18:44:23;99809.59;;;7.96;72.26
41140;BME280;26881;48.784;9.192;2023-02-02T18:49:46;99811.38;;;7.94;72.76
41140;BME280;26881;48.784;9.192;2023-02-02T18:55:08;99816.69;;;7.91;73.02
41140;BME280;26881;48.784;9.192;2023-02-02T19:00:29;99811.53;;;7.88;72.88
41140;BME280;26881;48.784;9.192;2023-02-02T19:05:51;99813.25;;;7.90;73.43
41140;BME280;26881;48.784;9.192;2023-02-02T19:11:38;99819.44;;;7.85;72.79
41140;BME280;26881;48.784;9.192;2023-02-02T19:22:35;99819.41;;;7.86;73.50
41140;BME280;26881;48.784;9.192;2023-02-02T19:28:01;99821.31;;;7.81;73.14
41140;BME280;26881;48.784;9.192;2023-02-02T19:39:12;99821.25;;;7.82;72.30
41140;BME280;26881;48.784;9.192;2023-02-02T19:44:35;99825.38;;;7.90;71.81
41140;BME280;26881;48.784;9.192;2023-02-02T19:50:13;99827.44;;;7.78;72.82
41140;BME280;26881;48.784;9.192;2023-02-02T19:55:36;99820.53;;;7.77;72.78
41140;BME280;26881;48.784;9.192;2023-02-02T20:00:58;99818.69;;;7.81;72.14
41140;BME280;26881;48.784;9.192;2023-02-02T20:06:25;99818.63;;;7.82;72.83
41140;BME280;26881;48.784;9.192;2023-02-02T20:11:47;99819.56;;;7.80;72.38
41140;BME280;26881;48.784;9.192;2023-02-02T20:17:17;99815.53;;;7.70;73.60
41140;BME280;26881;48.784;9.192;2023-02-02T20:22:42;99806.00;;;7.69;73.51
41140;BME280;26881;48.784;9.192;2023-02-02T20:28:08;99808.44;;;7.75;73.43
41140;BME280;26881;48.784;9.192;2023-02-02T20:33:43;99800.47;;;7.81;73.74
41140;BME280;26881;48.784;9.192;2023-02-02T20:44:47;99773.47;;;7.84;73.18
41140;BME280;26881;48.784;9.192;2023-02-02T20:50:09;99780.38;;;7.85;73.06
41140;BME280;26881;48.784;9.192;2023-02-02T20:55:32;99787.63;;;7.73;73.89
41140;BME280;26881;48.784;9.192;2023-02-02T21:00:56;99795.66;;;7.67;74.10
41140;BME280;26881;48.784;9.192;2023-02-02T21:06:19;99799.94;;;7.68;73.83
41140;BME280;26881;48.784;9.192;2023-02-02T21:11:41;99810.44;;;7.65;73.58
41140;BME280;26881;48.784;9.192;2023-02-02T21:17:02;99799.94;;;7.68;73.67
41140;BME280;26881;48.784;9.192;2023-02-02T21:22:35;99815.72;;;7.62;73.57
41140;BME280;26881;48.784;9.192;2023-02-02T21:27:57;99815.69;;;7.64;72.96
41140;BME280;26881;48.784;9.192;2023-02-02T21:33:20;99820.41;;;7.49;73.35
41140;BME280;26881;48.784;9.192;2023-02-02T21:38:42;99820.44;;;7.48;73.11
41140;BME280;26881;48.784;9.192;2023-02-02T21:44:11;99827.53;;;7.43;73.44
41140;BME280;26881;48.784;9.192;2023-02-02T21:49:37;99821.59;;;7.37;74.21
41140;BME280;26881;48.784;9.192;2023-02-02T21:55:33;99822.41;;;7.39;73.85
41140;BME280;26881;48.784;9.192;2023-02-02T22:00:57;99818.88;;;7.42;73.71
41140;BME280;26881;48.784;9.192;2023-02-02T22:06:26;99828.44;;;7.42;73.36
41140;BME280;26881;48.784;9.192;2023-02-02T22:11:57;99825.47;;;7.55;73.15
41140;BME280;26881;48.784;9.192;2023-02-02T22:17:34;99820.50;;;7.46;73.02
41140;BME280;26881;48.784;9.192;2023-02-02T22:23:00;99822.88;;;7.55;73.46
41140;BME280;26881;48.784;9.192;2023-02-02T22:28:38;99830.03;;;7.46;73.68
41140;BME280;26881;48.784;9.192;2023-02-02T22:34:03;99824.59;;;7.55;73.38
41140;BME280;26881;48.784;9.192;2023-02-02T22:39:24;99817.69;;;7.54;72.93
41140;BME280;26881;48.784;9.192;2023-02-02T22:44:46;99822.19;;;7.47;72.94
41140;BME280;26881;48.784;9.192;2023-02-02T22:50:09;99813.88;;;7.67;72.35
41140;BME280;26881;48.784;9.192;2023-02-02T22:55:31;99813.91;;;7.66;72.60
41140;BME280;26881;48.784;9.192;2023-02-02T23:00:54;99808.66;;;7.67;72.98
41140;BME280;26881;48.784;9.192;2023-02-02T23:06:16;99817.19;;;7.72;72.66
41140;BME280;26881;48.784;9.192;2023-02-02T23:11:38;99812.94;;;7.70;72.38
41140;BME280;26881;48.784;9.192;2023-02-02T23:16:59;99820.88;;;7.65;73.03
41140;BME280;26881;48.784;9.192;2023-02-02T23:22:21;99838.38;;;7.60;73.47
41140;BME280;26881;48.784;9.192;2023-02-02T23:27:44;99859.00;;;7.66;74.08
41140;BME280;26881;48.784;9.192;2023-02-02T23:33:06;99864.19;;;7.68;74.05
41140;BME280;26881;48.784;9.192;2023-02-02T23:38:27;99871.31;;;7.61;74.87
41140;BME280;26881;48.784;9.192;2023-02-02T23:43:49;99861.75;;;7.62;74.51
41140;BME280;26881;48.784;9.192;2023-02-02T23:49:11;99867.88;;;7.59;74.19
41140;BME280;26881;48.784;9.192;2023-02-02T23:54:33;99858.28;;;7.61;73.98
41140;BME280;26881;48.784;9.192;2023-02-02T23:59:56;99866.00;;;7.64;73.56
